Time;durP1;ratioP1;P1;durP2;ratioP2;P2;SDS_P1;SDS_P2;PMS_P1;PMS_P2;Temp;Humidity;BMP_temperature;BMP_pressure;BME280_temperature;BME280_humidity;BME280_pressure;Samples;Min_cycle;Max_cycle;Signal;HPM_P1;HPM_P2
2021/05/13 00:00:41;;;;;;;23.30;18.17;;;;;;;;;;5053637;28;20967;-52
2021/05/13 00:03:06;;;;;;;20.37;18.37;;;;;;;;;;5053009;28;20463;-52
2021/05/13 00:05:32;;;;;;;19.80;17.80;;;;;;;;;;5053371;28;20417;-52
2021/05/13 00:07:58;;;;;;;22.13;18.87;;;;;;;;;;5053266;28;20452;-52
2021/05/13 00:10:25;;;;;;;19.93;17.83;;;;;;;;;;5053288;28;20448;-53
2021/05/13 00:12:56;;;;;;;23.10;19.03;;;;;;;;;;5053022;28;20406;-52
2021/05/13 00:15:29;;;;;;;21.07;18.17;;;;;;;;;;5053253;28;20483;-53
2021/05/13 00:17:56;;;;;;;20.10;16.30;;;;;;;;;;5052936;28;20453;-53
2021/05/13 00:20:24;;;;;;;16.40;14.73;;;;;;;;;;5053129;28;20408;-53
2021/05/13 00:22:50;;;;;;;19.70;14.70;;;;;;;;;;5052563;28;20404;-52
2021/05/13 00:25:16;;;;;;;16.63;13.27;;;;;;;;;;5053143;28;20498;-52
2021/05/13 00:27:42;;;;;;;18.27;15.30;;;;;;;;;;5052773;28;20622;-52
2021/05/13 00:30:08;;;;;;;13.37;12.03;;;;;;;;;;5052884;28;20410;-52
2021/05/13 00:32:36;;;;;;;14.10;12.60;;;;;;;;;;5052505;28;20432;-53
2021/05/13 00:35:04;;;;;;;12.37;11.23;;;;;;;;;;5052823;28;20473;-53
2021/05/13 00:37:30;;;;;;;13.87;11.40;;;;;;;;;;5052642;28;20931;-53
2021/05/13 00:39:55;;;;;;;11.00;9.90;;;;;;;;;;5052628;28;20483;-52
2021/05/13 00:42:21;;;;;;;12.20;10.33;;;;;;;;;;5052509;28;20912;-52
2021/05/13 00:44:47;;;;;;;14.43;9.53;;;;;;;;;;5052018;28;20798;-53
2021/05/13 00:47:13;;;;;;;11.13;9.33;;;;;;;;;;5052474;28;20862;-54
2021/05/13 00:49:40;;;;;;;11.70;8.90;;;;;;;;;;5052529;28;20463;-53
2021/05/13 00:52:10;;;;;;;10.67;9.57;;;;;;;;;;5052259;28;20408;-53
2021/05/13 00:54:37;;;;;;;10.10;9.10;;;;;;;;;;5052360;28;20436;-54
2021/05/13 00:57:03;;;;;;;11.70;10.00;;;;;;;;;;5052375;28;20459;-52
2021/05/13 00:59:30;;;;;;;10.00;9.00;;;;;;;;;;5052281;28;20412;-52
2021/05/13 01:01:56;;;;;;;11.53;9.93;;;;;;;;;;5051770;28;20399;-52
2021/05/13 01:04:22;;;;;;;11.90;10.57;;;;;;;;;;5051476;28;20446;-52
2021/05/13 01:06:48;;;;;;;13.70;10.27;;;;;;;;;;5051850;28;20494;-52
2021/05/13 01:09:21;;;;;;;12.53;10.93;;;;;;;;;;5051551;28;20415;-52
2021/05/13 01:11:50;;;;;;;11.70;10.50;;;;;;;;;;5052269;28;21047;-52
2021/05/13 01:14:29;;;;;;;12.40;11.20;;;;;;;;;;5052190;28;20401;-52
2021/05/13 01:17:14;;;;;;;12.17;10.97;;;;;;;;;;5052090;28;20484;-52
2021/05/13 01:19:41;;;;;;;11.00;10.00;;;;;;;;;;5052188;28;21016;-52
2021/05/13 01:22:07;;;;;;;11.03;10.10;;;;;;;;;;5051978;28;20497;-52
2021/05/13 01:24:33;;;;;;;13.53;10.87;;;;;;;;;;5051899;28;20466;-53
2021/05/13 01:27:00;;;;;;;12.90;11.60;;;;;;;;;;5051975;28;20899;-53
2021/05/13 01:29:27;;;;;;;14.80;12.40;;;;;;;;;;5051662;28;20405;-52
2021/05/13 01:31:53;;;;;;;14.27;11.97;;;;;;;;;;5051642;28;20425;-54
2021/05/13 01:34:21;;;;;;;14.70;11.80;;;;;;;;;;5051608;28;20909;-53
2021/05/13 01:36:46;;;;;;;18.10;11.77;;;;;;;;;;5051946;28;20430;-52
2021/05/13 01:39:13;;;;;;;15.73;12.20;;;;;;;;;;5051526;28;20403;-52
2021/05/13 01:41:40;;;;;;;12.63;11.43;;;;;;;;;;5051457;28;21009;-52
2021/05/13 01:44:06;;;;;;;12.03;10.27;;;;;;;;;;5051197;28;20445;-53
2021/05/13 01:46:33;;;;;;;11.97;10.77;;;;;;;;;;5051483;28;20440;-53
2021/05/13 01:48:58;;;;;;;13.53;12.13;;;;;;;;;;5051514;28;20477;-52
2021/05/13 01:51:24;;;;;;;14.43;12.97;;;;;;;;;;5051169;28;20484;-52
2021/05/13 01:53:51;;;;;;;12.67;10.97;;;;;;;;;;5051394;28;20409;-52
2021/05/13 01:56:17;;;;;;;14.67;11.57;;;;;;;;;;5050838;28;20454;-52
2021/05/13 01:58:43;;;;;;;14.10;11.60;;;;;;;;;;5050752;28;20950;-52
2021/05/13 02:01:12;;;;;;;14.20;11.40;;;;;;;;;;5051087;28;20410;-52
2021/05/13 02:03:38;;;;;;;15.43;12.57;;;;;;;;;;5051356;28;20552;-53
2021/05/13 02:06:05;;;;;;;13.63;12.27;;;;;;;;;;5051032;28;20401;-52
2021/05/13 02:08:31;;;;;;;20.23;13.10;;;;;;;;;;5051150;28;20428;-53
2021/05/13 02:10:57;;;;;;;13.20;12.00;;;;;;;;;;5050942;28;20744;-52
2021/05/13 02:13:23;;;;;;;16.40;12.77;;;;;;;;;;5050712;28;20405;-53
2021/05/13 02:15:49;;;;;;;15.97;12.10;;;;;;;;;;5050874;28;20937;-53
2021/05/13 02:18:15;;;;;;;13.03;11.80;;;;;;;;;;5049614;28;20792;-54
2021/05/13 02:20:41;;;;;;;12.33;11.13;;;;;;;;;;5051150;28;20486;-54
2021/05/13 02:23:07;;;;;;;16.80;12.77;;;;;;;;;;5050628;28;20523;-52
2021/05/13 02:25:33;;;;;;;15.53;13.00;;;;;;;;;;5050709;28;20447;-52
2021/05/13 02:28:00;;;;;;;16.93;12.10;;;;;;;;;;5050646;28;20948;-54
2021/05/13 02:30:26;;;;;;;14.90;12.93;;;;;;;;;;5050628;28;20395;-53
2021/05/13 02:32:52;;;;;;;13.83;12.33;;;;;;;;;;5050538;28;20405;-52
2021/05/13 02:35:19;;;;;;;15.37;12.57;;;;;;;;;;5050600;28;20761;-54
2021/05/13 02:37:45;;;;;;;23.50;12.80;;;;;;;;;;5050615;28;20439;-52
2021/05/13 02:40:11;;;;;;;15.70;12.90;;;;;;;;;;5050479;28;20405;-52
2021/05/13 02:42:37;;;;;;;15.33;12.60;;;;;;;;;;5050376;28;21021;-52
2021/05/13 02:45:06;;;;;;;17.20;13.00;;;;;;;;;;5050695;28;20481;-52
2021/05/13 02:47:32;;;;;;;14.57;13.00;;;;;;;;;;5050506;28;20777;-53
2021/05/13 02:49:58;;;;;;;13.77;12.33;;;;;;;;;;5050902;28;20498;-54
2021/05/13 02:52:24;;;;;;;14.73;12.77;;;;;;;;;;5050200;28;20429;-53
2021/05/13 02:54:50;;;;;;;16.80;12.60;;;;;;;;;;5050590;28;20401;-52
2021/05/13 02:57:16;;;;;;;17.30;14.57;;;;;;;;;;5050375;28;20431;-52
2021/05/13 02:59:47;;;;;;;14.23;12.73;;;;;;;;;;5050522;28;20493;-52
2021/05/13 03:02:14;;;;;;;14.97;13.40;;;;;;;;;;5050220;28;20463;-54
2021/05/13 03:04:41;;;;;;;17.47;13.50;;;;;;;;;;5050447;28;20488;-52
2021/05/13 03:07:08;;;;;;;24.83;15.33;;;;;;;;;;5050353;28;20956;-52
2021/05/13 03:09:40;;;;;;;18.10;13.57;;;;;;;;;;5053490;28;20491;-52
2021/05/13 03:12:07;;;;;;;16.83;15.03;;;;;;;;;;5054290;28;20416;-53
2021/05/13 03:14:34;;;;;;;22.87;14.87;;;;;;;;;;5054612;28;21022;-52
2021/05/13 03:17:00;;;;;;;16.77;13.93;;;;;;;;;;5054333;28;20467;-53
2021/05/13 03:19:46;;;;;;;18.40;14.50;;;;;;;;;;5054469;28;20411;-52
2021/05/13 03:22:17;;;;;;;16.90;14.43;;;;;;;;;;5053956;28;20833;-54
2021/05/13 03:24:50;;;;;;;19.80;14.97;;;;;;;;;;5054413;28;20464;-52
2021/05/13 03:29:55;;;;;;;19.80;13.93;;;;;;;;;;5054126;28;20736;-52
2021/05/13 03:32:21;;;;;;;15.97;14.30;;;;;;;;;;5054014;28;20409;-53
2021/05/13 03:34:47;;;;;;;28.40;15.87;;;;;;;;;;5054290;28;20409;-52
2021/05/13 03:37:13;;;;;;;16.30;14.60;;;;;;;;;;5054050;28;20849;-53
2021/05/13 03:39:39;;;;;;;24.63;17.10;;;;;;;;;;5053998;28;20411;-53
2021/05/13 03:42:06;;;;;;;22.40;17.80;;;;;;;;;;5053682;28;20459;-53
2021/05/13 03:44:32;;;;;;;19.60;17.50;;;;;;;;;;5053745;28;20969;-52
2021/05/13 03:46:58;;;;;;;19.17;16.10;;;;;;;;;;5053387;28;20490;-52
2021/05/13 03:49:24;;;;;;;22.33;15.73;;;;;;;;;;5053725;28;20405;-53
2021/05/13 03:51:50;;;;;;;19.67;16.23;;;;;;;;;;5052099;28;20417;-52
2021/05/13 03:54:16;;;;;;;18.33;15.37;;;;;;;;;;5052329;28;20432;-53
2021/05/13 03:56:42;;;;;;;28.67;17.40;;;;;;;;;;5053536;28;20523;-53
2021/05/13 03:59:13;;;;;;;21.17;17.40;;;;;;;;;;5053460;28;20500;-52
2021/05/13 04:04:09;;;;;;;21.13;16.20;;;;;;;;;;5053122;28;20456;-54
2021/05/13 04:06:35;;;;;;;26.17;17.30;;;;;;;;;;5053346;28;20455;-53
2021/05/13 04:09:06;;;;;;;21.20;16.57;;;;;;;;;;5053282;28;20436;-52
2021/05/13 04:11:32;;;;;;;23.77;18.53;;;;;;;;;;5053580;28;20428;-53
2021/05/13 04:13:58;;;;;;;22.80;18.37;;;;;;;;;;5051746;28;20420;-53
2021/05/13 04:16:28;;;;;;;20.00;16.90;;;;;;;;;;5053127;28;20420;-53
2021/05/13 04:18:54;;;;;;;20.30;16.93;;;;;;;;;;5053078;28;20919;-53
2021/05/13 04:21:20;;;;;;;19.17;16.50;;;;;;;;;;5052052;28;20483;-53
2021/05/13 04:23:46;;;;;;;24.97;17.53;;;;;;;;;;5052868;28;20461;-52
2021/05/13 04:26:12;;;;;;;22.80;17.80;;;;;;;;;;5052995;28;20402;-53
2021/05/13 04:28:38;;;;;;;25.70;19.67;;;;;;;;;;5052776;28;20411;-53
2021/05/13 04:31:04;;;;;;;21.77;18.10;;;;;;;;;;5052883;28;20415;-54
2021/05/13 04:33:33;;;;;;;29.30;17.40;;;;;;;;;;5052506;28;20463;-53
2021/05/13 04:36:00;;;;;;;19.60;16.40;;;;;;;;;;5052951;28;20408;-53
2021/05/13 04:38:26;;;;;;;20.83;16.50;;;;;;;;;;5052704;28;20778;-53
2021/05/13 04:40:53;;;;;;;20.90;16.50;;;;;;;;;;5052760;28;20415;-52
2021/05/13 04:43:23;;;;;;;17.90;15.60;;;;;;;;;;5052209;28;20482;-53
2021/05/13 04:45:50;;;;;;;20.63;16.27;;;;;;;;;;5052769;28;20407;-52
2021/05/13 04:48:19;;;;;;;19.30;15.13;;;;;;;;;;5052661;28;20487;-53
2021/05/13 04:50:45;;;;;;;19.73;16.37;;;;;;;;;;5052701;28;20395;-52
2021/05/13 04:53:11;;;;;;;19.90;16.17;;;;;;;;;;5052179;28;20932;-52
2021/05/13 04:55:39;;;;;;;26.73;17.73;;;;;;;;;;5052442;28;20413;-53
2021/05/13 04:58:05;;;;;;;17.80;15.87;;;;;;;;;;5052206;28;20478;-52
2021/05/13 05:00:31;;;;;;;20.53;16.23;;;;;;;;;;5052456;28;20408;-54
2021/05/13 05:02:57;;;;;;;19.30;15.90;;;;;;;;;;5052099;28;20431;-53
2021/05/13 05:05:24;;;;;;;31.60;17.30;;;;;;;;;;5052192;28;20496;-52
2021/05/13 05:07:50;;;;;;;18.70;15.83;;;;;;;;;;5052237;28;20428;-54
2021/05/13 05:10:16;;;;;;;19.20;16.83;;;;;;;;;;5052073;28;20401;-54
2021/05/13 05:12:42;;;;;;;22.30;15.80;;;;;;;;;;5052518;28;20811;-54
2021/05/13 05:15:08;;;;;;;20.47;15.83;;;;;;;;;;5052052;28;20397;-54
2021/05/13 05:17:34;;;;;;;21.03;16.47;;;;;;;;;;5052068;28;20483;-54
2021/05/13 05:20:00;;;;;;;21.33;16.60;;;;;;;;;;5052004;28;20405;-54
2021/05/13 05:22:26;;;;;;;22.30;17.60;;;;;;;;;;5051842;28;20481;-54
2021/05/13 05:24:52;;;;;;;19.90;17.17;;;;;;;;;;5051798;28;20448;-54
2021/05/13 05:27:18;;;;;;;21.70;16.80;;;;;;;;;;5052064;28;20564;-55
2021/05/13 05:29:45;;;;;;;28.10;18.20;;;;;;;;;;5052081;28;20439;-54
2021/05/13 05:32:13;;;;;;;23.90;19.07;;;;;;;;;;5052106;28;20401;-55
2021/05/13 05:34:39;;;;;;;21.80;18.40;;;;;;;;;;5051021;28;20455;-54
2021/05/13 05:37:05;;;;;;;24.60;18.90;;;;;;;;;;5051670;28;20456;-55
2021/05/13 05:39:31;;;;;;;34.30;21.70;;;;;;;;;;5051426;28;20408;-55
2021/05/13 05:41:57;;;;;;;32.30;22.07;;;;;;;;;;5051428;28;20969;-54
2021/05/13 05:44:23;;;;;;;34.27;25.30;;;;;;;;;;5051375;28;20809;-55
2021/05/13 05:46:50;;;;;;;37.37;27.10;;;;;;;;;;5050161;28;20460;-55
2021/05/13 05:49:16;;;;;;;35.03;26.20;;;;;;;;;;5051538;28;21028;-54
2021/05/13 05:51:42;;;;;;;37.53;28.40;;;;;;;;;;5051285;28;20488;-54
2021/05/13 05:54:08;;;;;;;38.83;28.77;;;;;;;;;;5051144;28;20425;-55
2021/05/13 05:56:34;;;;;;;38.77;28.07;;;;;;;;;;5051154;28;20422;-55
2021/05/13 05:59:01;;;;;;;42.57;30.43;;;;;;;;;;5051296;28;20414;-55
2021/05/13 06:01:27;;;;;;;37.43;27.90;;;;;;;;;;5050913;28;20762;-55
2021/05/13 06:03:54;;;;;;;35.93;28.30;;;;;;;;;;5051047;28;20456;-54
2021/05/13 06:06:20;;;;;;;35.83;27.60;;;;;;;;;;5050939;28;20414;-55
2021/05/13 06:08:46;;;;;;;39.23;25.93;;;;;;;;;;5051086;28;20482;-54
2021/05/13 06:11:12;;;;;;;35.83;26.30;;;;;;;;;;5050899;28;20891;-54
2021/05/13 06:13:41;;;;;;;37.40;23.57;;;;;;;;;;5051164;28;20418;-54
2021/05/13 06:16:07;;;;;;;40.70;24.23;;;;;;;;;;5050849;28;20431;-54
2021/05/13 06:18:48;;;;;;;27.77;21.13;;;;;;;;;;5050954;28;20906;-54
2021/05/13 06:21:14;;;;;;;25.17;20.27;;;;;;;;;;5050638;28;20399;-54
2021/05/13 06:23:40;;;;;;;27.70;20.70;;;;;;;;;;5051100;28;20810;-54
2021/05/13 06:26:07;;;;;;;23.20;19.87;;;;;;;;;;5050614;28;20393;-55
2021/05/13 06:28:33;;;;;;;25.57;20.93;;;;;;;;;;5050781;28;20498;-55
2021/05/13 06:30:59;;;;;;;23.93;20.33;;;;;;;;;;5050626;28;20450;-55
2021/05/13 06:33:25;;;;;;;24.57;20.00;;;;;;;;;;5050846;28;20407;-54
2021/05/13 06:35:52;;;;;;;30.47;20.87;;;;;;;;;;5050595;28;20418;-55
2021/05/13 06:38:17;;;;;;;26.60;20.30;;;;;;;;;;5050717;28;20516;-54
2021/05/13 06:40:43;;;;;;;30.17;21.00;;;;;;;;;;5050544;28;20547;-55
2021/05/13 06:43:11;;;;;;;23.37;19.67;;;;;;;;;;5049948;28;20410;-55
2021/05/13 06:45:36;;;;;;;28.20;19.53;;;;;;;;;;5050523;28;20476;-55
2021/05/13 06:48:03;;;;;;;23.73;18.90;;;;;;;;;;5050521;28;20536;-54
2021/05/13 06:50:29;;;;;;;18.13;15.60;;;;;;;;;;5050412;28;20907;-54
2021/05/13 06:52:55;;;;;;;19.57;16.40;;;;;;;;;;5050469;28;20488;-55
2021/05/13 06:55:21;;;;;;;21.87;15.30;;;;;;;;;;5050759;28;20412;-54
2021/05/13 06:57:47;;;;;;;16.60;14.90;;;;;;;;;;5050656;28;20753;-55
2021/05/13 07:00:13;;;;;;;19.23;13.87;;;;;;;;;;5050826;28;20419;-55
2021/05/13 07:02:39;;;;;;;16.00;14.23;;;;;;;;;;5050700;28;20407;-55
2021/05/13 07:05:08;;;;;;;17.03;15.20;;;;;;;;;;5050539;28;20911;-54
2021/05/13 07:07:38;;;;;;;15.73;14.20;;;;;;;;;;5050593;28;20417;-55
2021/05/13 07:10:04;;;;;;;15.57;13.97;;;;;;;;;;5051001;28;20384;-55
2021/05/13 07:12:31;;;;;;;12.83;11.70;;;;;;;;;;5050282;28;20401;-55
2021/05/13 07:14:59;;;;;;;14.17;12.63;;;;;;;;;;5050515;28;20397;-55
2021/05/13 07:17:25;;;;;;;13.00;11.70;;;;;;;;;;5048784;28;20412;-54
2021/05/13 07:19:52;;;;;;;12.87;11.60;;;;;;;;;;5050453;28;20540;-55
2021/05/13 07:22:19;;;;;;;12.17;10.87;;;;;;;;;;5049985;28;20872;-54
2021/05/13 07:24:45;;;;;;;12.93;11.73;;;;;;;;;;5050223;28;20464;-55
2021/05/13 07:27:11;;;;;;;12.60;11.50;;;;;;;;;;5050123;28;20399;-55
2021/05/13 07:29:38;;;;;;;13.63;12.30;;;;;;;;;;5050195;28;20379;-55
2021/05/13 07:32:05;;;;;;;12.83;11.47;;;;;;;;;;5049802;28;20378;-55
2021/05/13 07:34:31;;;;;;;11.50;10.50;;;;;;;;;;5050155;28;20423;-55
2021/05/13 07:36:57;;;;;;;12.20;10.17;;;;;;;;;;5050039;28;20490;-55
2021/05/13 07:39:25;;;;;;;18.00;12.03;;;;;;;;;;5050263;28;20405;-55
2021/05/13 07:41:52;;;;;;;12.60;9.03;;;;;;;;;;5049920;28;20713;-55
2021/05/13 07:44:18;;;;;;;10.40;9.50;;;;;;;;;;5049936;28;20663;-54
2021/05/13 07:46:44;;;;;;;15.30;12.87;;;;;;;;;;5049669;28;20544;-55
2021/05/13 07:49:10;;;;;;;15.97;11.33;;;;;;;;;;5050108;28;20422;-55
2021/05/13 07:51:41;;;;;;;12.67;10.70;;;;;;;;;;5048873;28;20422;-55
2021/05/13 07:54:07;;;;;;;10.83;9.70;;;;;;;;;;5049885;28;20414;-54
2021/05/13 07:56:34;;;;;;;10.73;9.73;;;;;;;;;;5052617;28;20940;-54
2021/05/13 07:59:00;;;;;;;10.33;9.37;;;;;;;;;;5053364;28;20919;-53
2021/05/13 08:01:29;;;;;;;10.80;9.70;;;;;;;;;;5053642;28;20380;-55
2021/05/13 08:03:55;;;;;;;10.37;9.47;;;;;;;;;;5053261;28;20427;-54
2021/05/13 08:06:22;;;;;;;14.60;9.50;;;;;;;;;;5053352;28;20440;-54
2021/05/13 08:08:48;;;;;;;8.57;7.00;;;;;;;;;;5053287;28;20393;-54
2021/05/13 08:11:17;;;;;;;10.00;9.03;;;;;;;;;;5053202;28;20514;-54
2021/05/13 08:13:43;;;;;;;9.33;8.43;;;;;;;;;;5053027;28;20453;-54
2021/05/13 08:16:09;;;;;;;8.47;7.77;;;;;;;;;;5053264;28;20876;-53
2021/05/13 08:18:35;;;;;;;7.80;7.20;;;;;;;;;;5053294;28;20397;-54
2021/05/13 08:21:02;;;;;;;8.63;7.83;;;;;;;;;;5053205;28;20408;-54
2021/05/13 08:23:28;;;;;;;7.80;7.10;;;;;;;;;;5052740;28;20453;-54
2021/05/13 08:25:54;;;;;;;7.53;6.80;;;;;;;;;;5053088;28;20771;-55
2021/05/13 08:28:20;;;;;;;7.97;6.67;;;;;;;;;;5052755;28;20757;-55
2021/05/13 08:30:46;;;;;;;9.07;6.87;;;;;;;;;;5053199;28;20397;-55
2021/05/13 08:33:12;;;;;;;7.03;6.30;;;;;;;;;;5052720;28;20401;-54
2021/05/13 08:35:38;;;;;;;8.00;6.17;;;;;;;;;;5053060;28;20483;-54
2021/05/13 08:38:04;;;;;;;9.10;7.07;;;;;;;;;;5058045;28;20476;-55
2021/05/13 08:40:30;;;;;;;8.00;5.90;;;;;;;;;;5053348;28;20402;-56
2021/05/13 08:42:56;;;;;;;6.57;6.17;;;;;;;;;;5067910;28;20847;-55
2021/05/13 08:45:22;;;;;;;7.40;6.60;;;;;;;;;;5052902;28;20510;-55
2021/05/13 08:47:48;;;;;;;6.93;6.33;;;;;;;;;;5068366;28;20544;-55
2021/05/13 08:50:15;;;;;;;7.83;6.57;;;;;;;;;;5052584;28;20489;-55
2021/05/13 08:52:42;;;;;;;6.80;6.17;;;;;;;;;;5051530;28;20524;-54
2021/05/13 08:55:08;;;;;;;7.53;6.53;;;;;;;;;;5052068;28;20559;-55
2021/05/13 08:57:35;;;;;;;8.83;8.03;;;;;;;;;;5051074;28;20424;-54
2021/05/13 09:00:01;;;;;;;7.53;6.50;;;;;;;;;;5051586;28;20847;-54
2021/05/13 09:02:29;;;;;;;8.60;7.90;;;;;;;;;;5052158;28;20897;-55
2021/05/13 09:04:56;;;;;;;8.10;7.40;;;;;;;;;;5051896;28;20449;-55
2021/05/13 09:07:30;;;;;;;7.37;6.73;;;;;;;;;;5051831;28;20797;-55
2021/05/13 09:10:07;;;;;;;8.70;7.80;;;;;;;;;;5051936;28;20476;-56
2021/05/13 09:12:45;;;;;;;7.47;6.80;;;;;;;;;;5052070;28;20409;-55
2021/05/13 09:15:20;;;;;;;9.27;8.33;;;;;;;;;;5051950;28;20458;-55
2021/05/13 09:17:52;;;;;;;8.43;7.53;;;;;;;;;;5052081;28;20488;-55
2021/05/13 09:20:29;;;;;;;8.67;7.87;;;;;;;;;;5051826;28;20786;-55
2021/05/13 09:23:15;;;;;;;8.17;7.47;;;;;;;;;;5051793;28;20413;-55
2021/05/13 09:26:01;;;;;;;9.70;8.80;;;;;;;;;;5051588;28;20417;-55
2021/05/13 09:28:30;;;;;;;9.07;8.23;;;;;;;;;;5033362;28;20559;-53
2021/05/13 09:30:57;;;;;;;8.63;7.83;;;;;;;;;;5052001;28;20401;-54
2021/05/13 09:33:49;;;;;;;7.57;6.70;;;;;;;;;;5052226;28;20889;-53
2021/05/13 09:36:19;;;;;;;10.23;5.67;;;;;;;;;;5051614;28;20424;-54
2021/05/13 09:38:46;;;;;;;7.40;6.70;;;;;;;;;;5051830;28;20401;-54
2021/05/13 09:41:12;;;;;;;7.83;7.03;;;;;;;;;;5051705;28;20481;-54
2021/05/13 09:43:39;;;;;;;6.67;6.07;;;;;;;;;;5051581;28;20465;-55
2021/05/13 09:46:06;;;;;;;7.60;6.67;;;;;;;;;;5051423;28;20480;-55
2021/05/13 09:48:34;;;;;;;7.20;4.93;;;;;;;;;;5051533;28;20481;-55
2021/05/13 09:51:21;;;;;;;4.67;4.00;;;;;;;;;;5051571;28;20488;-55
2021/05/13 09:53:48;;;;;;;8.60;3.83;;;;;;;;;;5051329;28;20393;-55
2021/05/13 09:56:23;;;;;;;6.23;5.00;;;;;;;;;;5051423;28;20885;-55
2021/05/13 09:58:49;;;;;;;4.50;4.10;;;;;;;;;;5051340;28;20409;-55
2021/05/13 10:01:15;;;;;;;7.97;5.20;;;;;;;;;;5051170;28;20408;-55
2021/05/13 10:03:41;;;;;;;2.60;2.13;;;;;;;;;;5051123;28;20484;-55
2021/05/13 10:06:11;;;;;;;4.80;2.10;;;;;;;;;;5051284;28;20913;-54
2021/05/13 10:08:37;;;;;;;3.73;3.27;;;;;;;;;;5051317;28;20485;-56
2021/05/13 10:11:03;;;;;;;4.43;4.07;;;;;;;;;;5051410;28;20451;-55
2021/05/13 10:13:32;;;;;;;5.67;4.10;;;;;;;;;;5051051;28;20437;-55
2021/05/13 10:15:58;;;;;;;5.30;4.20;;;;;;;;;;5051391;28;20455;-55
2021/05/13 10:18:44;;;;;;;3.93;3.50;;;;;;;;;;5050221;28;20408;-55
2021/05/13 10:21:13;;;;;;;6.10;4.23;;;;;;;;;;5050986;28;20409;-54
2021/05/13 10:23:42;;;;;;;6.40;4.83;;;;;;;;;;5050577;28;20455;-55
2021/05/13 10:26:17;;;;;;;4.50;4.20;;;;;;;;;;5050714;28;20814;-56
2021/05/13 10:28:43;;;;;;;5.37;4.87;;;;;;;;;;5050691;28;20404;-55
2021/05/13 10:31:10;;;;;;;5.83;4.40;;;;;;;;;;5049808;28;20492;-55
2021/05/13 10:33:44;;;;;;;4.17;3.87;;;;;;;;;;5050300;28;20482;-55
2021/05/13 10:36:14;;;;;;;3.93;3.63;;;;;;;;;;5050838;28;20430;-55
2021/05/13 10:38:44;;;;;;;7.57;4.00;;;;;;;;;;5050563;28;20405;-55
2021/05/13 10:41:50;;;;;;;3.20;2.97;;;;;;;;;;5050876;28;20885;-56
2021/05/13 10:44:16;;;;;;;4.13;3.80;;;;;;;;;;5049678;28;20506;-55
2021/05/13 10:46:55;;;;;;;4.90;3.10;;;;;;;;;;5050373;28;20441;-55
2021/05/13 10:49:22;;;;;;;4.23;3.60;;;;;;;;;;5050308;28;20488;-55
2021/05/13 10:51:49;;;;;;;3.60;3.30;;;;;;;;;;5050404;28;20402;-55
2021/05/13 10:54:30;;;;;;;4.33;3.10;;;;;;;;;;5050243;28;20410;-54
2021/05/13 10:57:14;;;;;;;2.60;2.40;;;;;;;;;;5050526;28;20424;-54
2021/05/13 11:00:00;;;;;;;3.57;3.00;;;;;;;;;;5050331;28;20970;-55
2021/05/13 11:02:55;;;;;;;3.03;2.37;;;;;;;;;;5049878;28;20444;-55
2021/05/13 11:05:28;;;;;;;2.67;2.47;;;;;;;;;;5049741;28;20601;-55
2021/05/13 11:07:56;;;;;;;4.27;3.00;;;;;;;;;;5050366;28;20428;-56
2021/05/13 11:10:42;;;;;;;2.83;2.43;;;;;;;;;;5049656;28;20406;-56
2021/05/13 11:13:28;;;;;;;3.67;2.90;;;;;;;;;;5050087;28;20414;-55
2021/05/13 11:15:54;;;;;;;3.83;2.40;;;;;;;;;;5049659;28;20516;-56
2021/05/13 11:18:43;;;;;;;2.60;2.20;;;;;;;;;;5050470;28;20417;-56
2021/05/13 11:21:11;;;;;;;2.40;2.20;;;;;;;;;;5048077;28;20417;-54
2021/05/13 11:23:37;;;;;;;4.33;2.00;;;;;;;;;;5050057;28;20453;-54
2021/05/13 11:26:10;;;;;;;2.93;2.50;;;;;;;;;;5050057;28;20393;-53
2021/05/13 11:28:43;;;;;;;4.80;2.60;;;;;;;;;;5050326;28;20405;-56
2021/05/13 11:31:09;;;;;;;3.40;1.73;;;;;;;;;;5053913;28;20443;-53
2021/05/13 11:33:39;;;;;;;3.33;2.10;;;;;;;;;;5053811;28;20416;-53
2021/05/13 11:36:05;;;;;;;3.40;2.40;;;;;;;;;;5053625;28;20401;-53
2021/05/13 11:38:31;;;;;;;2.17;1.97;;;;;;;;;;5054027;28;20401;-56
2021/05/13 11:40:59;;;;;;;2.00;1.90;;;;;;;;;;5053739;28;21029;-54
2021/05/13 11:43:27;;;;;;;3.70;1.97;;;;;;;;;;5051388;28;20401;-53
2021/05/13 11:45:54;;;;;;;2.50;2.20;;;;;;;;;;5053928;28;20475;-53
2021/05/13 11:48:25;;;;;;;2.20;2.10;;;;;;;;;;5053257;28;20476;-53
2021/05/13 11:50:52;;;;;;;6.10;2.23;;;;;;;;;;5053867;28;20401;-53
2021/05/13 11:53:20;;;;;;;3.30;2.87;;;;;;;;;;5052146;28;20509;-53
2021/05/13 11:55:47;;;;;;;3.80;2.53;;;;;;;;;;5053442;28;20744;-53
2021/05/13 11:58:14;;;;;;;4.17;2.67;;;;;;;;;;5053438;28;20554;-53
2021/05/13 12:00:41;;;;;;;3.87;2.53;;;;;;;;;;5053365;28;20905;-53
2021/05/13 12:03:08;;;;;;;4.67;3.53;;;;;;;;;;5052933;28;20820;-53
2021/05/13 12:05:44;;;;;;;4.57;2.50;;;;;;;;;;5053384;28;20412;-53
2021/05/13 12:08:12;;;;;;;4.20;2.80;;;;;;;;;;5053189;28;20424;-53
2021/05/13 12:10:38;;;;;;;4.87;2.50;;;;;;;;;;5053311;28;20767;-53
2021/05/13 12:13:03;;;;;;;2.50;2.23;;;;;;;;;;5053366;28;20420;-53
2021/05/13 12:15:29;;;;;;;3.53;2.40;;;;;;;;;;5053073;28;20410;-53
2021/05/13 12:17:57;;;;;;;2.30;2.10;;;;;;;;;;5052903;28;20424;-53
2021/05/13 12:20:23;;;;;;;4.37;2.20;;;;;;;;;;5053056;28;20405;-54
2021/05/13 12:22:49;;;;;;;3.60;2.30;;;;;;;;;;5052712;28;20408;-53
2021/05/13 12:25:15;;;;;;;7.87;2.00;;;;;;;;;;5052965;28;20461;-53
2021/05/13 12:27:41;;;;;;;2.43;2.10;;;;;;;;;;5052938;28;20431;-53
2021/05/13 12:30:07;;;;;;;3.70;2.30;;;;;;;;;;5052687;28;20500;-53
2021/05/13 12:32:36;;;;;;;2.07;1.90;;;;;;;;;;5052666;28;20936;-53
2021/05/13 12:35:21;;;;;;;3.80;2.03;;;;;;;;;;5052707;28;20936;-53
2021/05/13 12:37:47;;;;;;;4.40;3.10;;;;;;;;;;5052544;28;20459;-55
2021/05/13 12:40:14;;;;;;;11.70;4.53;;;;;;;;;;5051307;28;20453;-54
2021/05/13 12:42:40;;;;;;;3.00;2.37;;;;;;;;;;5051942;28;20413;-53
2021/05/13 12:45:27;;;;;;;4.40;4.10;;;;;;;;;;5052451;28;20865;-53
2021/05/13 12:47:56;;;;;;;5.57;3.80;;;;;;;;;;5052479;28;20528;-53
2021/05/13 12:50:26;;;;;;;7.97;5.20;;;;;;;;;;5052415;28;20429;-54
2021/05/13 12:53:07;;;;;;;6.73;4.60;;;;;;;;;;5052374;28;20670;-52
2021/05/13 12:55:38;;;;;;;5.43;4.50;;;;;;;;;;5052361;28;20401;-53
2021/05/13 12:58:15;;;;;;;5.10;4.67;;;;;;;;;;5052398;28;20508;-53
2021/05/13 13:00:43;;;;;;;5.93;5.43;;;;;;;;;;5052163;28;20439;-54
2021/05/13 13:03:16;;;;;;;4.93;4.43;;;;;;;;;;5051961;28;20547;-53
2021/05/13 13:05:43;;;;;;;4.80;4.33;;;;;;;;;;5052153;28;20916;-53
2021/05/13 13:08:09;;;;;;;5.10;3.83;;;;;;;;;;5052357;28;20432;-53
2021/05/13 13:10:45;;;;;;;4.13;3.83;;;;;;;;;;5051229;28;20463;-53
2021/05/13 13:13:16;;;;;;;5.10;4.07;;;;;;;;;;5051886;28;20800;-53
2021/05/13 13:15:48;;;;;;;3.90;3.03;;;;;;;;;;5052053;28;20402;-56
2021/05/13 13:18:16;;;;;;;3.80;3.50;;;;;;;;;;5051924;28;20912;-53
2021/05/13 13:20:43;;;;;;;3.83;3.10;;;;;;;;;;5052124;28;20451;-54
2021/05/13 13:23:28;;;;;;;6.17;4.47;;;;;;;;;;5051494;28;20401;-53
2021/05/13 13:25:58;;;;;;;5.57;5.07;;;;;;;;;;5051966;28;20451;-53
2021/05/13 13:28:24;;;;;;;6.80;4.80;;;;;;;;;;5051693;28;20396;-53
2021/05/13 13:30:51;;;;;;;8.00;6.30;;;;;;;;;;5051771;28;20405;-53
2021/05/13 13:33:19;;;;;;;6.70;5.57;;;;;;;;;;5051552;28;20439;-53
2021/05/13 13:35:46;;;;;;;7.17;6.57;;;;;;;;;;5051786;28;20950;-53
2021/05/13 13:38:12;;;;;;;7.10;6.40;;;;;;;;;;5049684;28;20441;-54
2021/05/13 13:40:40;;;;;;;8.00;6.10;;;;;;;;;;5051500;28;20425;-53
2021/05/13 13:43:08;;;;;;;7.00;5.83;;;;;;;;;;5050772;28;20427;-53
2021/05/13 13:45:35;;;;;;;7.60;6.80;;;;;;;;;;5051526;28;20460;-53
2021/05/13 13:48:10;;;;;;;7.20;5.77;;;;;;;;;;5051295;28;20432;-53
2021/05/13 13:50:37;;;;;;;8.73;5.03;;;;;;;;;;5051525;28;20393;-53
2021/05/13 13:53:03;;;;;;;5.30;4.57;;;;;;;;;;5050092;28;20400;-53
2021/05/13 13:55:29;;;;;;;4.93;4.40;;;;;;;;;;5051452;28;20409;-55
2021/05/13 13:57:57;;;;;;;7.20;5.40;;;;;;;;;;5051125;28;20483;-53
2021/05/13 14:00:23;;;;;;;7.47;6.10;;;;;;;;;;5051522;28;20401;-54
2021/05/13 14:02:52;;;;;;;8.03;7.03;;;;;;;;;;5050909;28;20397;-53
2021/05/13 14:05:21;;;;;;;23.70;19.00;;;;;;;;;;5051249;28;20444;-53
2021/05/13 14:07:48;;;;;;;6.67;5.90;;;;;;;;;;5051035;28;20924;-53
2021/05/13 14:10:16;;;;;;;6.70;4.90;;;;;;;;;;5051203;28;20401;-55
2021/05/13 14:12:44;;;;;;;5.50;5.00;;;;;;;;;;5050860;28;20459;-54
2021/05/13 14:15:13;;;;;;;10.67;5.77;;;;;;;;;;5050924;28;20467;-55
2021/05/13 14:17:39;;;;;;;6.67;6.00;;;;;;;;;;5051019;28;20433;-53
2021/05/13 14:20:07;;;;;;;6.83;6.13;;;;;;;;;;5050934;28;20431;-53
2021/05/13 14:22:33;;;;;;;7.40;6.70;;;;;;;;;;5050696;28;20409;-53
2021/05/13 14:24:59;;;;;;;8.17;5.60;;;;;;;;;;5050592;28;20464;-54
2021/05/13 14:27:28;;;;;;;6.50;5.90;;;;;;;;;;5050770;28;20421;-56
2021/05/13 14:29:54;;;;;;;6.83;5.63;;;;;;;;;;5049838;28;20806;-54
2021/05/13 14:32:20;;;;;;;7.13;4.97;;;;;;;;;;5050641;28;20916;-53
2021/05/13 14:34:47;;;;;;;5.57;4.93;;;;;;;;;;5050596;28;20459;-53
2021/05/13 14:37:16;;;;;;;6.40;4.57;;;;;;;;;;5050722;28;20435;-56
2021/05/13 14:39:42;;;;;;;5.30;4.80;;;;;;;;;;5050670;28;20413;-53